Friday, July 01, 2016
06:14 UTC
  |  Log In   |  Register Free
Airport Search:

Akron-Canton Regional Airport
(KCAK)

FAA data valid effective May 26 2016 - Jul 21 2016 (unless otherwise noted).

 
 
 
 
 
 
 
 
 
 
 
 
 
 
Current Aviation Weather for KCAK

Weather Summary


The most recent METAR observation for CAK was updated at: 12:51 UTC
METAR for KCAK is not available. Closest METAR is for KAKR
KCAK  (most recent observation was updatred at 10:55 UTC)
010551Z 17004KT 10SM SCT160 17/11 A2997 RMK AO2 SLP141 T01720106 10239 20172 58013

KAKR  (7.4 nm SE)   (most recent observation was updated at 10:55 UTC)
010554Z AUTO 00000KT 10SM CLR 19/11 A2996 RMK AO2 SLP136 T01890106 10256 20183 58015

KPOV  (19.7 nm SW)   (most recent observation was updated at 10:60 UTC)
010600Z AUTO 00000KT 10SM CLR 15/10 A2996 RMK AO2 T01460103 10231 20146 402620088

TAF for KCAK is not available.
KCAK
010525Z 0106/0206 20003KT P6SM SCT120 BKN200 FM011200 22007KT P6SM VCSH SCT030 OVC050 TEMPO 0112/0116 5SM -SHRA BKN025 FM011600 27012G18KT P6SM BKN025 OVC040 FM020000 34007KT P6SM SCT040

KCLE  (35.0 nm SE)   (most recent observation was updatred at 10:52 UTC)
010525Z 0106/0212 18004KT P6SM SCT120 BKN200 FM011000 21007KT P6SM VCSH SCT030 OVC050 TEMPO 0111/0115 5SM -SHRA BKN025 FM011500 28010KT P6SM BKN025 OVC050 FM011900 30012G20KT P6SM BKN040 FM020000 33009KT P6SM SCT040
GlobalAir.com is loading additional information.
 Current Weather at CAK
65.0 F° (18.3 C°)

North winds at 0.0 mph
Pressure:
29.99 in
Humidity:
56%
Wind:
North at 0.0 mph
Dew Point:
48.9 F° (9.4 C°)
Visibility:
10.00 mi
CAK NOAA Radar




Find All Airport Services Find A Hotel Find A Rental Car Find A Golf Course Find A Restaurant $100 Hamburger



Airport Weather Forecast for KCAK

Translated METAR for KCAK (0551 UTC)
METAR:
KCAK 010551Z 17004KT 10SM SCT160 17/11 A2997 RMK AO2 SLP141 T01720106 10239 20172 58013
Conditions at:
KCAK (Akron-Canton Rgnl, OH) observed 0551 UTC 01 July 2016
Temperature:
17°C (62.6°F)
Dewpoint:
11°C (51.8°F) [RH = 67.8]
Pressure:
29.97 inches Hg (1014.9 mb)
pressure at sea level is 141 in Hg
Winds:
from the S (170 degrees) at 4.6 mph (4 knots: 2.1 m/s)
Visibility:
10 mile(s)
Ceiling:
at least 12,000 feet AGL
Clouds:
Scattered Clouds at 16,000 feet AGL
Remarks:
site is automated and HAS a precipitation sensor

Translated TAF for KCAK (Akron-Canton Rgnl, OH) (0525 UTC)
TAF text:
KCAK 010525Z 0106/0206 20003KT P6SM SCT120 BKN200
Forecast period:
Friday Jul 01 2016 06:00 UTC - Saturday Jul 02 2016 06:00 UTC
Forecast type:
FROM: standard forecast or significant change
Winds:
from the SSW (200 degrees) at 3.5 mph (3 knots: 1.5 m/s)
Visibility:
6 or more mile(s) (9.7+ km)
Ceiling:
20,000 feet AGL
Clouds:
Scattered Clouds at 12,000 feet AGL
Broken Cloud Cover at 20,000 feet AGL
Weather:
no significant weather observed at this time
TAF text:
FM011200 22007KT P6SM VCSH SCT030 OVC050
Forecast period:
Friday Jul 01 2016 12:00 UTC - Friday Jul 01 2016 16:00 UTC
Forecast type:
FROM: standard forecast or significant change
Winds:
from the SW (220 degrees) at 8.1 mph (7 knots: 3.6 m/s)
Visibility:
6 or more mile(s) (9.7+ km)
Ceiling:
5,000 feet AGL
Clouds:
Scattered Clouds at 3,000 feet AGL
Overcast Skies at 5,000 feet AGL
Weather:
Moderate In Vicinity Shower(s)
TAF text:
0112/0116 5SM -SHRA BKN025
Forecast period:
Saturday Jul 02 2016 12:00 UTC - Saturday Jul 02 2016 16:00 UTC
Forecast type:
FROM: standard forecast or significant change
Winds:
Visibility:
5 mile(s) (8 km)
Ceiling:
2,500 feet AGL
Clouds:
Broken Cloud Cover at 2,500 feet AGL
Weather:
Light Shower(s) Rain
TAF text:
FM011600 27012G18KT P6SM BKN025 OVC040
Forecast period:
Friday Jul 01 2016 16:00 UTC - Saturday Jul 02 2016 00:00 UTC
Forecast type:
FROM: standard forecast or significant change
Winds:
from the W (270 degrees) at 13.8 mph (12 knots: 6.2 m/s)
gusting to 20.7 mph (18 knots: 9.3 m/s)
Visibility:
6 or more mile(s) (9.7+ km)
Ceiling:
2,500 feet AGL
Clouds:
Broken Cloud Cover at 2,500 feet AGL
Overcast Skies at 4,000 feet AGL
Weather:
no significant weather observed at this time
TAF text:
FM020000 34007KT P6SM SCT040
Forecast period:
Saturday Jul 02 2016 00:00 UTC - Saturday Jul 02 2016 06:00 UTC
Forecast type:
FROM: standard forecast or significant change
Winds:
from the NNW (340 degrees) at 8.1 mph (7 knots: 3.6 m/s)
Visibility:
6 or more mile(s) (9.7+ km)
Ceiling:
at least 12,000 feet AGL
Clouds:
Scattered Clouds at 4,000 feet AGL
Weather:
no significant weather observed at this time
FBO's on the Field
FBO Company Facility Photos Services Transportation Aviation Fuel Prices: Prices include tax
Catering Weather Repair Courtesy Rental Type 100LL JetA JetA+ MOGAS 8087
 
Avflight Akron-Canton

Currently rated 4.8 by 1 person
FS:Avfuel
Last Updated: Jun-15
Login to update fuel prices
SS:
Contact Avflight Akron-CantonMore FBO Information
 
McKinley Air, Inc.

Currently rated 4.8 by 8 people
FS:Phillips 66
Last Updated: May-24
Login to update fuel prices
SS:
Contact McKinley Air, Inc.More FBO Information
 
Add another FBO Facility Photos Catering Weather Repair Courtesy Rental Type 100LL JetA JetA+ MOGAS 8087
Services Transportation Aviation Fuel Prices: Prices include tax


model-print
model-print
model-print
model-print